Latest Weather Observations for Witchcliffe

IDW60801

Issued at 12:03 pm WST Friday 16 November 2018 (issued every 10 minutes, with the page automatically refreshed every 10 minutes)

About weather observations | Map of weather stations | Latest weather observations for WA | Other Formats
Station Details ID: 009746 Name: WITCHCLIFFE Lat: -34.03 Lon: 115.10 Height: 80.0 m
Data from the previous 72 hours. | See also: Recent months at Witchcliffe
Date/Time
WST
Temp
°C
App
Temp
°C
Dew
Point
°C
Rel
Hum
%
Delta-T
°C
Wind Press
QNH
hPa
Press
MSL
hPa
Rain since
9am
mm
Dir  Spd
km/h
Gust
km/h
Spd
kts
Gust
kts
16/12:00pm 24.7 21.9 13.3 49 6.7 SE 20 28 11 15 1016.5 1016.4 0.0
16/11:30am 24.2 20.9 12.8 49 6.6 SE 22 33 12 18 1016.9 1016.8 0.0
16/11:00am 23.2 19.1 11.6 48 6.5 SE 24 32 13 17 1017.6 1017.5 0.0
16/10:30am 23.5 20.3 11.9 48 6.6 SE 20 33 11 18 1017.9 1017.8 0.0
16/10:00am 21.7 17.6 11.4 52 5.7 SSE 24 33 13 18 1018.5 1018.4 0.0
16/09:30am 20.5 17.1 11.4 56 5.0 SE 20 32 11 17 1018.7 1018.6 0.0
16/09:00am 19.9 16.5 11.4 58 4.7 SE 20 28 11 15 1019.1 1019.0 0.0
16/08:30am 18.0 14.4 10.6 62 4.0 SE 20 30 11 16 1019.3 1019.2 0.0
16/08:00am 17.0 13.2 11.1 68 3.2 SE 22 32 12 17 1019.6 1019.5 0.0
16/07:30am 16.1 12.3 11.1 72 2.7 SE 22 33 12 18 1019.9 1019.8 0.0
16/07:00am 15.1 11.6 10.9 76 2.2 SE 20 30 11 16 1020.1 1019.9 0.0
16/06:30am 14.0 10.6 10.6 80 1.8 SE 19 26 10 14 1020.4 1020.2 0.0
16/06:00am 12.9 9.8 10.4 85 1.3 SE 17 24 9 13 1020.4 1020.2 0.0
16/05:30am 12.2 9.6 10.6 90 0.8 SE 15 26 8 14 1020.5 1020.3 0.0
16/05:00am 11.7 9.4 10.4 92 0.7 SSE 13 19 7 10 1020.6 1020.4 0.0
16/04:30am 11.7 9.5 10.8 94 0.5 SSE 13 17 7 9 1020.6 1020.4 0.0
16/04:00am 11.6 9.4 10.7 94 0.5 SSE 13 17 7 9 1020.7 1020.5 0.0
16/03:30am 12.0 9.9 11.1 94 0.5 SSE 13 17 7 9 1020.5 1020.3 0.0
16/03:00am 12.1 11.1 11.0 93 0.6 SE 7 13 4 7 1019.8 1019.7 0.0
16/02:30am 12.4 10.7 11.1 92 0.7 SE 11 17 6 9 1019.5 1019.4 0.0
16/02:00am 12.7 10.6 11.1 90 0.8 SE 13 19 7 10 1019.7 1019.6 0.0
16/01:30am 12.9 10.8 11.0 88 1.0 SE 13 20 7 11 1019.8 1019.7 0.0
16/01:00am 13.4 10.5 11.1 86 1.2 SE 17 30 9 16 1019.9 1019.8 0.0
16/12:30am 13.8 10.4 11.1 84 1.4 ESE 20 32 11 17 1019.9 1019.8 0.0
16/12:00am 14.2 10.5 11.4 83 1.5 SE 22 39 12 21 1019.9 1019.8 0.0
 
Date/Time
WST
Temp
°C
App
Temp
°C
Dew
Point
°C
Rel
Hum
%
Delta-T
°C
Wind Press
QNH
hPa
Press
MSL
hPa
Rain since
9am
mm
Dir  Spd
km/h
Gust
km/h
Spd
kts
Gust
kts
15/11:30pm 14.5 10.4 11.5 82 1.6 SE 24 39 13 21 1020.3 1020.1 0.0
15/11:00pm 14.7 10.3 11.7 82 1.6 SE 26 44 14 24 1020.2 1020.0 0.0
15/10:30pm 15.0 10.4 12.3 84 1.5 SE 28 44 15 24 1020.5 1020.3 0.0
15/10:00pm 15.2 11.5 12.7 85 1.4 SE 24 39 13 21 1020.8 1020.6 0.0
15/09:30pm 15.3 11.5 12.4 83 1.6 SE 24 39 13 21 1020.9 1020.7 0.0
15/09:00pm 15.4 11.2 11.0 75 2.3 SSE 24 37 13 20 1020.9 1020.7 0.0
15/08:30pm 15.4 10.8 11.0 75 2.4 SSE 26 37 14 20 1020.8 1020.6 0.0
15/08:00pm 15.2 11.0 11.2 77 2.1 SE 24 35 13 19 1020.5 1020.3 0.0
15/07:30pm 15.4 10.7 10.8 74 2.4 SE 26 37 14 20 1020.4 1020.2 0.0
15/07:00pm 15.6 11.2 10.4 71 2.7 SE 24 33 13 18 1020.1 1019.9 0.0
15/06:30pm 16.0 11.5 10.1 68 3.1 SSE 24 35 13 19 1019.9 1019.8 0.0
15/06:00pm 16.7 12.8 10.8 68 3.2 SE 22 32 12 17 1019.8 1019.7 0.0
15/05:33pm 17.3 12.1 10.2 63 3.8 SE 28 46 15 25 1019.7 1019.6 0.0
15/05:30pm 17.5 12.9 11.1 66 3.5 SE 26 35 14 19 1019.8 1019.7 0.0
15/05:00pm 17.4 12.5 10.1 62 3.9 SE 26 37 14 20 1019.7 1019.6 0.0
15/04:30pm 17.9 12.2 11.0 64 3.7 SSE 32 44 17 24 1019.5 1019.4 0.0
15/04:00pm 18.6 12.7 11.2 62 4.0 SSE 33 46 18 25 1019.6 1019.5 0.0
15/03:30pm 19.4 14.7 11.9 62 4.2 SE 28 44 15 24 1019.8 1019.7 0.0
15/03:00pm 20.5 15.8 12.0 58 4.7 SSE 28 41 15 22 1019.7 1019.6 0.0
15/02:30pm 20.9 16.2 12.1 57 4.9 SSE 28 41 15 22 1019.9 1019.8 0.0
15/02:00pm 21.1 16.1 12.3 57 5.0 SSE 30 39 16 21 1019.9 1019.8 0.0
15/01:30pm 20.8 15.6 12.8 60 4.6 SSE 32 44 17 24 1019.9 1019.8 0.0
15/01:00pm 21.3 15.7 12.2 56 5.1 SSE 33 46 18 25 1020.1 1019.9 0.0
15/12:30pm 22.4 17.9 12.6 54 5.6 SSE 28 43 15 23 1019.8 1019.7 0.0
15/12:00pm 23.2 18.8 12.8 52 6.0 SSE 28 35 15 19 1020.1 1019.9 0.0
15/11:30am 22.8 19.4 12.4 52 5.9 S 22 32 12 17 1020.2 1020.0 0.0
15/11:00am 23.0 20.2 13.2 54 5.7 S 20 32 11 17 1020.3 1020.1 0.0
15/10:30am 23.4 21.0 13.8 54 5.6 S 19 24 10 13 1020.3 1020.1 0.0
15/10:00am 22.5 19.5 13.6 57 5.2 SSE 22 32 12 17 1020.5 1020.3 0.0
15/09:30am 21.8 19.7 13.7 60 4.7 SSE 17 26 9 14 1020.2 1020.0 0.0
15/09:00am 20.8 18.0 13.3 62 4.3 SSE 20 30 11 16 1020.1 1019.9 0.0
15/08:30am 19.4 17.4 13.8 70 3.2 SSE 17 24 9 13 1019.8 1019.7 0.0
15/08:00am 18.1 15.8 14.0 77 2.3 SSE 19 28 10 15 1019.7 1019.6 0.0
15/07:30am 16.2 14.6 14.0 87 1.3 SSE 15 20 8 11 1019.6 1019.5 0.0
15/07:00am 14.0 14.9 14.0 100 0.0 SE 2 7 1 4 1019.4 1019.3 0.0
15/06:30am 12.2 12.9 12.2 100 0.0 CALM 0 2 0 1 1019.3 1019.2 0.0
15/06:00am 10.0 10.1 10.0 100 0.0 CALM 0 0 0 0 1019.2 1019.1 0.0
15/05:30am 8.5 8.2 8.5 100 0.0 CALM 0 0 0 0 1019.0 1018.9 0.0
15/05:00am 8.7 8.4 8.7 100 0.0 CALM 0 0 0 0 1018.6 1018.5 0.0
15/04:30am 9.0 8.8 9.0 100 0.0 CALM 0 0 0 0 1018.1 1018.0 0.0
15/04:00am 9.8 9.8 9.8 100 0.0 CALM 0 0 0 0 1017.8 1017.7 0.0
15/03:30am 10.5 10.7 10.5 100 0.0 CALM 0 0 0 0 1017.8 1017.7 0.0
15/03:00am 10.0 10.0 9.9 99 0.1 CALM 0 0 0 0 1017.9 1017.8 0.0
15/02:30am 11.1 11.4 10.9 99 0.1 CALM 0 0 0 0 1017.9 1017.8 0.0
15/02:00am 10.9 10.0 10.7 99 0.1 SSE 6 9 3 5 1017.9 1017.8 0.0
15/01:30am 11.1 10.1 10.9 99 0.1 SSE 7 9 4 5 1017.8 1017.7 0.0
15/01:00am 11.7 10.8 11.2 97 0.3 SSE 7 9 4 5 1017.8 1017.7 0.0
15/12:30am 12.1 10.8 11.3 95 0.4 SE 9 13 5 7 1017.9 1017.8 0.0
15/12:00am 12.9 11.8 11.8 93 0.6 SE 9 13 5 7 1018.1 1018.0 0.0
 
Date/Time
WST
Temp
°C
App
Temp
°C
Dew
Point
°C
Rel
Hum
%
Delta-T
°C
Wind Press
QNH
hPa
Press
MSL
hPa
Rain since
9am
mm
Dir  Spd
km/h
Gust
km/h
Spd
kts
Gust
kts
14/11:30pm 13.3 11.7 11.7 90 0.9 SE 11 17 6 9 1018.3 1018.2 0.0
14/11:00pm 13.6 11.7 11.8 89 1.0 SE 13 20 7 11 1018.5 1018.4 0.0
14/10:30pm 13.6 11.4 12.0 90 0.9 SSE 15 19 8 10 1018.6 1018.5 0.0
14/10:00pm 13.6 11.9 12.3 92 0.7 SE 13 17 7 9 1018.8 1018.7 0.0
14/09:30pm 14.0 12.0 12.7 92 0.7 SSE 15 20 8 11 1019.1 1019.0 0.0
14/09:00pm 14.0 11.9 12.4 90 0.9 SSE 15 20 8 11 1018.9 1018.8 0.0
14/08:30pm 14.3 11.8 12.2 87 1.1 SSE 17 22 9 12 1018.7 1018.6 0.0
14/08:00pm 14.5 11.8 11.8 84 1.5 SE 17 26 9 14 1018.8 1018.7 0.0
14/07:30pm 14.7 11.3 11.3 80 1.8 SE 20 32 11 17 1018.8 1018.7 0.0
14/07:00pm 15.1 11.9 11.1 77 2.1 SSE 19 26 10 14 1018.7 1018.6 0.0
14/06:30pm 15.9 11.7 11.1 73 2.6 SSE 24 32 13 17 1018.7 1018.6 0.0
14/06:00pm 16.6 13.1 10.9 69 3.1 SSE 20 30 11 16 1018.7 1018.6 0.0
14/05:30pm 17.3 13.0 10.9 66 3.5 SSE 24 33 13 18 1018.6 1018.5 0.0
14/05:00pm 17.7 13.0 10.8 64 3.7 SSE 26 35 14 19 1018.6 1018.5 0.0
14/04:30pm 17.9 13.5 10.5 62 4.0 SSE 24 33 13 18 1018.8 1018.7 0.0
14/04:00pm 18.4 14.0 10.5 60 4.2 SSE 24 37 13 20 1018.9 1018.8 0.0
14/03:30pm 19.1 15.1 10.4 57 4.7 SSE 22 35 12 19 1019.0 1018.9 0.0
14/03:00pm 20.5 16.2 10.6 53 5.4 SSE 24 30 13 16 1019.1 1019.0 0.0
14/02:30pm 21.5 17.2 10.6 50 6.0 SSE 24 30 13 16 1019.2 1019.1 0.0
14/02:00pm 21.5 17.8 10.0 48 6.2 SSE 20 32 11 17 1019.4 1019.3 0.0
14/01:30pm 21.4 17.8 9.9 48 6.2 SE 19 28 10 15 1019.7 1019.6 0.0
14/01:00pm 21.5 17.7 9.7 47 6.4 SSE 20 33 11 18 1020.1 1019.9 0.0
14/12:30pm 21.0 17.2 9.9 49 6.0 SE 20 28 11 15 1020.3 1020.1 0.0
14/12:00pm 20.4 16.4 9.0 48 6.0 SSE 20 32 11 17 1020.6 1020.4 0.0
14/11:30am 20.6 16.6 8.9 47 6.2 SSE 20 33 11 18 1020.9 1020.7 0.0
14/11:00am 20.2 15.7 8.5 47 6.1 SSE 22 30 12 16 1021.1 1020.9 0.0
14/10:30am 19.8 16.5 8.2 47 6.0 SE 15 28 8 15 1021.2 1021.0 0.0
14/10:00am 19.3 15.6 8.0 48 5.8 SE 17 26 9 14 1021.5 1021.3 0.0
14/09:30am 18.2 14.0 7.6 50 5.4 SE 19 32 10 17 1021.7 1021.5 0.0
14/09:00am 17.0 12.8 7.6 54 4.7 ESE 19 28 10 15 1021.6 1021.4 0.0
14/08:30am 16.4 12.3 7.9 57 4.3 SE 19 26 10 14 1021.9 1021.7 0.0
14/08:00am 14.8 11.0 7.6 62 3.6 ESE 17 30 9 16 1022.1 1021.9 0.0
14/07:30am 13.8 10.1 8.0 68 2.9 ESE 17 28 9 15 1022.1 1021.9 0.0
14/07:00am 13.0 10.2 8.5 74 2.2 SE 13 20 7 11 1022.1 1021.9 0.0
14/06:30am 11.5 9.3 8.0 79 1.7 ESE 9 17 5 9 1021.9 1021.7 0.0
14/06:00am 9.9 7.0 8.2 89 0.8 SE 13 20 7 11 1021.9 1021.7 0.0
14/05:30am 8.7 6.9 7.2 90 0.7 SE 6 9 3 5 1021.7 1021.5 0.0
14/05:00am 9.2 6.9 7.6 90 0.8 SE 9 13 5 7 1021.2 1021.0 0.0
14/04:30am 8.9 7.2 7.4 90 0.7 SE 6 9 3 5 1020.9 1020.7 0.0
14/04:00am 9.1 7.2 7.5 90 0.8 ESE 7 13 4 7 1020.8 1020.6 0.0
14/03:30am 9.2 7.0 8.0 92 0.6 SE 9 13 5 7 1021.0 1020.8 0.0
14/03:00am 8.7 7.1 7.8 94 0.4 SE 6 11 3 6 1021.1 1020.9 0.0
14/02:30am 8.8 7.8 7.4 91 0.7 SE 2 9 1 5 1021.0 1020.8 0.0
14/02:00am 9.3 7.9 7.4 88 0.9 ESE 4 9 2 5 1020.9 1020.7 0.0
14/01:30am 10.0 8.1 7.4 84 1.2 SE 7 11 4 6 1020.9 1020.7 0.0
14/01:00am 10.8 8.3 8.0 83 1.4 SE 11 15 6 8 1021.0 1020.8 0.0
14/12:30am 10.7 8.4 7.6 81 1.5 SE 9 13 5 7 1021.0 1020.8 0.0
14/12:00am 11.5 8.9 7.8 78 1.8 SE 11 17 6 9 1021.2 1021.0 0.0
 
Date/Time
WST
Temp
°C
App
Temp
°C
Dew
Point
°C
Rel
Hum
%
Delta-T
°C
Wind Press
QNH
hPa
Press
MSL
hPa
Rain since
9am
mm
Dir  Spd
km/h
Gust
km/h
Spd
kts
Gust
kts
13/11:30pm 12.0 8.3 7.9 76 2.0 SSE 17 20 9 11 1021.4 1021.2 0.0
13/11:00pm 11.9 8.2 8.0 77 1.9 SSE 17 22 9 12 1021.4 1021.2 0.0
13/10:30pm 11.6 8.6 7.9 78 1.8 SSE 13 19 7 10 1021.6 1021.4 0.0
13/10:00pm 12.0 8.7 8.1 77 1.9 SSE 15 17 8 9 1021.8 1021.6 0.0
13/09:30pm 12.1 9.2 8.2 77 1.9 SSE 13 19 7 10 1021.9 1021.7 0.0
13/09:00pm 12.5 9.7 8.4 76 2.0 SSE 13 19 7 10 1021.7 1021.5 0.0
13/08:30pm 13.1 9.9 8.4 73 2.3 SSE 15 20 8 11 1021.3 1021.1 0.0
13/08:00pm 13.4 10.2 8.5 72 2.4 SSE 15 19 8 10 1021.0 1020.8 0.0
13/07:30pm 14.0 10.8 8.4 69 2.8 SSE 15 20 8 11 1020.8 1020.6 0.0
13/07:00pm 14.3 11.1 8.3 67 3.0 SSE 15 28 8 15 1020.4 1020.2 0.0
13/06:30pm 14.9 12.1 8.4 65 3.3 SSE 13 20 7 11 1020.1 1019.9 0.0
13/06:00pm 15.7 11.7 8.4 62 3.7 SSE 19 24 10 13 1020.1 1019.9 0.0
13/05:30pm 16.7 12.7 8.9 60 4.0 SSE 20 28 11 15 1019.6 1019.5 0.0
13/05:00pm 17.6 13.9 9.5 59 4.2 SSE 19 30 10 16 1019.3 1019.2 0.0
13/04:30pm 18.6 14.9 10.2 58 4.5 S 20 28 11 15 1019.0 1018.9 0.0
13/04:00pm 19.5 15.8 10.2 55 5.0 S 20 30 11 16 1018.9 1018.8 0.0
13/03:30pm 19.3 16.1 10.0 55 5.0 SSE 17 28 9 15 1018.8 1018.7 0.0
13/03:00pm 20.2 16.5 10.3 53 5.4 S 20 28 11 15 1018.9 1018.8 0.0
13/02:30pm 20.6 17.2 10.4 52 5.6 SSE 19 30 10 16 1019.0 1018.9 0.0
13/02:00pm 19.8 16.2 10.5 55 5.0 SSE 20 28 11 15 1019.2 1019.1 0.0
13/01:30pm 19.8 17.1 11.6 59 4.5 SE 17 26 9 14 1019.3 1019.2 0.0
13/01:00pm 20.0 17.2 11.2 57 4.8 S 17 26 9 14 1019.5 1019.4 0.0
13/12:30pm 19.5 17.2 11.8 61 4.3 SSE 15 20 8 11 1019.6 1019.5 0.0

Other Formats:

Comma delimited format used in spreadsheet applications
http://www.bom.gov.au/fwo/IDW60801/IDW60801.95641.axf

JavaScript Object Notation format (JSON) in row-major order
http://www.bom.gov.au/fwo/IDW60801/IDW60801.95641.json